createdAt,value
2022-08-17T00:00:34.281Z,10.55
2022-08-17T00:03:17.304Z,11.38
2022-08-17T00:05:50.311Z,10.93
2022-08-17T00:08:30.467Z,9.98
2022-08-17T00:10:58.746Z,10.70
2022-08-17T00:13:34.178Z,9.95
2022-08-17T00:16:08.387Z,9.00
2022-08-17T00:19:02.109Z,9.63
2022-08-17T00:21:25.555Z,8.65
2022-08-17T00:23:54.145Z,10.07
2022-08-17T00:26:38.794Z,9.18
2022-08-17T00:29:14.898Z,8.65
2022-08-17T00:31:48.954Z,9.50
2022-08-17T00:34:17.338Z,8.57
2022-08-17T00:36:45.622Z,8.13
2022-08-17T00:39:13.630Z,7.97
2022-08-17T00:41:42.418Z,7.75
2022-08-17T00:44:12.409Z,8.18
2022-08-17T00:46:45.550Z,8.77
2022-08-17T00:49:14.893Z,8.35
2022-08-17T00:51:56.079Z,8.00
2022-08-17T00:54:32.808Z,7.70
2022-08-17T00:57:30.208Z,7.82
2022-08-17T01:00:03.679Z,7.70
2022-08-17T01:02:41.986Z,7.28
2022-08-17T01:05:21.789Z,6.93
2022-08-17T01:07:53.508Z,6.72
2022-08-17T01:10:58.730Z,6.82
2022-08-17T01:13:16.725Z,7.63
2022-08-17T01:15:51.691Z,5.80
2022-08-17T01:18:19.967Z,6.43
2022-08-17T01:20:53.899Z,5.82
2022-08-17T01:23:23.935Z,5.90
2022-08-17T01:25:54.611Z,5.82
2022-08-17T01:28:33.414Z,5.60
2022-08-17T01:31:11.628Z,6.10
2022-08-17T01:33:39.448Z,5.53
2022-08-17T01:36:08.550Z,5.10
2022-08-17T01:38:37.487Z,5.68
2022-08-17T01:41:12.873Z,5.43
2022-08-17T01:44:00.003Z,6.32
2022-08-17T01:46:31.405Z,5.50
2022-08-17T01:49:09.393Z,5.47
2022-08-17T01:51:38.253Z,5.25
2022-08-17T01:54:09.227Z,4.97
2022-08-17T01:56:41.259Z,5.03
2022-08-17T01:59:10.784Z,5.53
2022-08-17T02:01:39.320Z,4.72
2022-08-17T02:04:08.678Z,4.75
2022-08-17T02:06:52.710Z,5.22
2022-08-17T02:09:25.948Z,5.35
2022-08-17T02:11:56.327Z,4.47
2022-08-17T02:14:25.299Z,4.40
2022-08-17T02:16:54.074Z,4.97
2022-08-17T02:19:22.478Z,5.05
2022-08-17T02:21:52.206Z,4.45
2022-08-17T02:24:58.812Z,4.22
2022-08-17T02:27:17.313Z,4.15
2022-08-17T02:29:45.575Z,4.07
2022-08-17T02:32:28.089Z,4.53
2022-08-17T02:34:58.406Z,4.03
2022-08-17T02:37:28.540Z,4.50
2022-08-17T02:39:58.526Z,4.43
2022-08-17T02:42:41.952Z,4.78
2022-08-17T02:45:18.764Z,4.13
2022-08-17T02:47:47.725Z,4.30
2022-08-17T02:50:18.566Z,4.13
2022-08-17T02:53:02.311Z,3.55
2022-08-17T02:55:37.359Z,4.03
2022-08-17T02:58:06.142Z,4.10
2022-08-17T03:00:44.208Z,4.03
2022-08-17T03:03:13.859Z,3.70
2022-08-17T03:05:42.078Z,4.40
2022-08-17T03:08:13.303Z,4.10
2022-08-17T03:10:41.624Z,4.43
2022-08-17T03:13:10.157Z,3.72
2022-08-17T03:15:40.639Z,3.97
2022-08-17T03:18:09.400Z,4.25
2022-08-17T03:20:47.419Z,4.45
2022-08-17T03:23:15.268Z,4.50
2022-08-17T03:25:46.586Z,3.88
2022-08-17T03:28:14.704Z,4.15
2022-08-17T03:30:42.951Z,4.60
2022-08-17T03:33:11.010Z,3.55
2022-08-17T03:35:40.640Z,4.00
2022-08-17T03:38:10.879Z,3.97
2022-08-17T03:40:57.473Z,3.75
2022-08-17T03:43:29.650Z,3.67
2022-08-17T03:46:28.327Z,3.50
2022-08-17T03:49:28.629Z,3.85
2022-08-17T03:52:15.930Z,4.13
2022-08-17T03:55:03.654Z,4.00
2022-08-17T03:57:32.171Z,3.95
2022-08-17T04:00:00.136Z,3.90
2022-08-17T04:02:35.073Z,3.90
2022-08-17T04:05:03.373Z,4.22
2022-08-17T04:07:32.311Z,4.20
2022-08-17T04:10:00.432Z,3.75
2022-08-17T04:12:31.952Z,4.00
2022-08-17T04:15:00.404Z,3.67
2022-08-17T04:17:29.558Z,3.55
2022-08-17T04:19:58.208Z,3.63
2022-08-17T04:22:31.906Z,3.33
2022-08-17T04:25:28.913Z,3.88
2022-08-17T04:27:57.506Z,3.97
2022-08-17T04:30:25.774Z,3.58
2022-08-17T04:33:04.596Z,3.95
2022-08-17T04:35:39.282Z,3.58
2022-08-17T04:38:09.167Z,4.00
2022-08-17T04:40:56.351Z,3.88
2022-08-17T04:43:25.935Z,3.58
2022-08-17T04:45:58.020Z,3.83
2022-08-17T04:48:36.605Z,4.00
2022-08-17T04:51:17.499Z,4.20
2022-08-17T04:53:49.041Z,3.88
2022-08-17T04:56:22.752Z,4.10
2022-08-17T04:58:52.812Z,3.67
2022-08-17T05:01:23.824Z,3.65
2022-08-17T05:03:54.695Z,3.50
2022-08-17T05:06:23.712Z,3.33
2022-08-17T05:08:51.736Z,4.00
2022-08-17T05:11:19.711Z,4.38
2022-08-17T05:13:50.585Z,3.90
2022-08-17T05:16:19.567Z,3.78
2022-08-17T05:18:47.826Z,3.83
2022-08-17T05:21:16.222Z,3.88
2022-08-17T05:23:47.200Z,4.15
2022-08-17T05:26:26.402Z,4.10
2022-08-17T05:28:57.110Z,3.80
2022-08-17T05:31:27.247Z,4.40
2022-08-17T05:33:55.326Z,3.80
2022-08-17T05:36:41.786Z,4.80
2022-08-17T05:39:16.926Z,4.20
2022-08-17T05:41:47.278Z,3.90
2022-08-17T05:44:15.835Z,3.65
2022-08-17T05:46:50.269Z,3.75
2022-08-17T05:49:23.770Z,4.25
2022-08-17T05:52:32.200Z,3.78
2022-08-17T05:55:13.007Z,3.65
2022-08-17T05:57:52.891Z,4.18
2022-08-17T06:00:30.540Z,3.67
2022-08-17T06:03:16.172Z,4.38
2022-08-17T06:05:54.197Z,4.18
2022-08-17T06:08:45.990Z,4.13
2022-08-17T06:11:46.170Z,3.25
2022-08-17T06:14:41.396Z,4.13
2022-08-17T06:17:16.353Z,4.50
2022-08-17T06:19:56.846Z,4.03
2022-08-17T06:22:28.775Z,3.95
2022-08-17T06:25:20.097Z,3.70
2022-08-17T06:27:56.622Z,3.58
2022-08-17T06:30:27.604Z,3.70
2022-08-17T06:33:00.273Z,3.72
2022-08-17T06:35:34.983Z,4.53
2022-08-17T06:41:09.886Z,4.00
2022-08-17T06:43:49.529Z,4.72
2022-08-17T06:46:30.952Z,4.60
2022-08-17T06:49:22.417Z,4.20
2022-08-17T06:51:54.946Z,4.03
2022-08-17T06:54:46.095Z,4.75
2022-08-17T06:57:36.375Z,3.75
2022-08-17T07:00:10.694Z,4.18
2022-08-17T07:03:12.216Z,3.83
2022-08-17T07:05:53.219Z,4.07
2022-08-17T07:08:42.826Z,4.10
2022-08-17T07:11:56.426Z,4.03
2022-08-17T07:14:57.685Z,3.60
2022-08-17T07:17:47.781Z,4.35
2022-08-17T07:20:18.355Z,3.80
2022-08-17T07:23:07.674Z,3.58
2022-08-17T07:25:36.544Z,4.18
2022-08-17T07:28:07.150Z,4.05
2022-08-17T07:30:45.845Z,3.90
2022-08-17T07:33:28.170Z,4.50
2022-08-17T07:35:58.442Z,4.78
2022-08-17T07:38:28.639Z,3.72
2022-08-17T07:41:03.142Z,3.92
2022-08-17T07:46:46.125Z,3.50
2022-08-17T07:49:13.920Z,4.53
2022-08-17T07:51:44.666Z,3.80
2022-08-17T07:54:27.575Z,3.85
2022-08-17T07:57:08.845Z,4.22
2022-08-17T07:59:40.759Z,4.43
2022-08-17T08:02:40.543Z,3.97
2022-08-17T08:05:13.516Z,4.03
2022-08-17T08:07:51.603Z,4.07
2022-08-17T08:10:38.799Z,3.70
2022-08-17T08:13:17.940Z,3.90
2022-08-17T08:15:54.170Z,3.58
2022-08-17T08:18:55.954Z,3.58
2022-08-17T08:21:30.579Z,3.53
2022-08-17T08:24:30.884Z,4.07
2022-08-17T08:27:17.618Z,4.18
2022-08-17T08:30:08.817Z,4.50
2022-08-17T08:33:04.745Z,3.90
2022-08-17T08:35:40.421Z,3.63
2022-08-17T08:38:32.977Z,3.63
2022-08-17T08:41:42.305Z,4.32
2022-08-17T08:45:00.953Z,4.15
2022-08-17T08:47:51.919Z,3.25
2022-08-17T08:50:49.564Z,4.03
2022-08-17T08:53:39.466Z,3.83
2022-08-17T08:56:25.581Z,3.60
2022-08-17T08:59:00.260Z,3.45
2022-08-17T09:05:02.710Z,3.58
2022-08-17T09:07:46.904Z,3.67
2022-08-17T09:10:28.051Z,3.25
2022-08-17T09:13:16.577Z,3.72
2022-08-17T09:15:53.010Z,3.03
2022-08-17T09:19:02.676Z,3.38
2022-08-17T09:21:26.530Z,2.88
2022-08-17T09:24:05.634Z,3.60
2022-08-17T09:26:52.496Z,3.50
2022-08-17T09:29:24.885Z,2.65
2022-08-17T09:32:03.995Z,3.08
2022-08-17T09:34:47.050Z,2.58
2022-08-17T09:37:26.575Z,3.20
2022-08-17T09:40:11.911Z,3.00
2022-08-17T09:42:53.318Z,3.03
2022-08-17T09:45:24.506Z,3.10
2022-08-17T09:48:15.407Z,3.67
2022-08-17T09:51:04.633Z,3.30
2022-08-17T09:53:37.666Z,3.15
2022-08-17T09:56:24.204Z,2.60
2022-08-17T09:59:11.547Z,2.80
2022-08-17T10:01:46.791Z,2.72
2022-08-17T10:04:14.665Z,2.63
2022-08-17T10:06:59.042Z,2.92
2022-08-17T10:09:56.496Z,3.15
2022-08-17T10:12:38.619Z,2.80
2022-08-17T10:15:34.817Z,2.65
2022-08-17T10:18:12.641Z,2.58
2022-08-17T10:25:22.778Z,2.78
2022-08-17T10:28:06.096Z,3.88
2022-08-17T10:30:38.538Z,2.38
2022-08-17T10:33:15.094Z,3.03
2022-08-17T10:35:52.160Z,2.65
2022-08-17T10:39:17.250Z,2.78
2022-08-17T10:41:50.523Z,2.95
2022-08-17T10:44:47.532Z,2.67
2022-08-17T10:47:18.992Z,2.63
2022-08-17T10:49:54.449Z,2.67
2022-08-17T10:52:22.466Z,2.65
2022-08-17T10:54:57.892Z,2.30
2022-08-17T10:57:42.716Z,2.93
2022-08-17T11:00:43.429Z,2.38
2022-08-17T11:03:21.468Z,2.72
2022-08-17T11:06:17.457Z,2.50
2022-08-17T11:09:03.962Z,2.45
2022-08-17T11:11:57.198Z,2.58
2022-08-17T11:14:42.862Z,2.08
2022-08-17T11:17:16.754Z,2.38
2022-08-17T11:19:49.416Z,1.98
2022-08-17T11:22:39.138Z,2.42
2022-08-17T11:25:23.356Z,2.78
2022-08-17T11:27:55.389Z,2.50
2022-08-17T11:31:07.943Z,2.70
2022-08-17T11:33:36.659Z,2.78
2022-08-17T11:36:25.136Z,2.85
2022-08-17T11:39:01.724Z,2.38
2022-08-17T11:42:06.752Z,2.50
2022-08-17T11:44:40.274Z,2.73
2022-08-17T11:47:36.755Z,4.05
2022-08-17T11:50:40.979Z,4.15
2022-08-17T11:53:37.832Z,3.50
2022-08-17T11:56:41.405Z,2.30
2022-08-17T11:59:34.870Z,3.25
2022-08-17T12:02:04.843Z,3.53
2022-08-17T12:04:34.937Z,3.50
2022-08-17T12:07:24.301Z,2.72
2022-08-17T12:09:53.848Z,2.40
2022-08-17T12:12:29.894Z,2.42
2022-08-17T12:15:10.201Z,2.20
2022-08-17T12:17:42.629Z,2.22
2022-08-17T12:20:22.462Z,2.38
2022-08-17T12:23:01.453Z,2.10
2022-08-17T12:26:10.757Z,2.47
2022-08-17T12:28:40.588Z,2.22
2022-08-17T12:31:36.337Z,2.78
2022-08-17T12:34:05.689Z,3.03
2022-08-17T12:36:34.139Z,3.17
2022-08-17T12:39:13.955Z,2.50
2022-08-17T12:41:48.268Z,2.78
2022-08-17T12:44:28.637Z,2.10
2022-08-17T12:47:22.827Z,2.13
2022-08-17T12:49:56.014Z,2.80
2022-08-17T12:52:30.247Z,2.20
2022-08-17T12:55:07.229Z,1.88
2022-08-17T12:57:35.295Z,2.20
2022-08-17T13:00:17.920Z,2.05
2022-08-17T13:02:52.119Z,2.20
2022-08-17T13:05:36.270Z,2.35
2022-08-17T13:08:17.279Z,2.40
2022-08-17T13:10:56.718Z,2.22
2022-08-17T13:13:31.422Z,1.90
2022-08-17T13:16:10.418Z,2.75
2022-08-17T13:18:41.588Z,2.83
2022-08-17T13:21:27.543Z,2.65
2022-08-17T13:24:08.720Z,2.38
2022-08-17T13:26:40.477Z,2.67
2022-08-17T13:29:24.198Z,2.22
2022-08-17T13:32:07.933Z,2.38
2022-08-17T13:35:15.038Z,2.10
2022-08-17T13:37:41.434Z,2.63
2022-08-17T13:40:10.992Z,2.20
2022-08-17T13:42:52.986Z,2.28
2022-08-17T13:45:36.514Z,2.40
2022-08-17T13:48:13.973Z,2.20
2022-08-17T13:50:57.204Z,2.42
2022-08-17T13:53:37.414Z,2.45
2022-08-17T13:56:33.321Z,2.53
2022-08-17T13:59:01.852Z,2.30
2022-08-17T14:01:53.958Z,2.33
2022-08-17T14:04:25.173Z,2.63
2022-08-17T14:07:03.888Z,2.30
2022-08-17T14:09:37.832Z,2.40
2022-08-17T14:12:11.392Z,2.95
2022-08-17T14:14:41.492Z,2.40
2022-08-17T14:17:09.905Z,2.50
2022-08-17T14:19:37.980Z,2.78
2022-08-17T14:22:09.342Z,2.53
2022-08-17T14:24:44.995Z,2.47
2022-08-17T14:27:13.312Z,3.10
2022-08-17T14:29:41.472Z,2.53
2022-08-17T14:32:30.761Z,2.63
2022-08-17T14:34:59.800Z,2.50
2022-08-17T14:37:28.933Z,2.00
2022-08-17T14:39:59.206Z,2.60
2022-08-17T14:42:30.616Z,2.88
2022-08-17T14:44:59.149Z,2.40
2022-08-17T14:47:27.457Z,2.70
2022-08-17T14:49:55.385Z,2.38
2022-08-17T14:52:24.313Z,2.70
2022-08-17T14:54:53.482Z,2.45
2022-08-17T14:57:33.115Z,2.67
2022-08-17T15:00:03.438Z,2.40
2022-08-17T15:02:31.433Z,2.60
2022-08-17T15:05:25.081Z,2.45
2022-08-17T15:07:53.820Z,2.45
2022-08-17T15:10:22.214Z,2.30
2022-08-17T15:12:50.345Z,2.42
2022-08-17T15:15:24.107Z,3.10
2022-08-17T15:17:52.595Z,2.53
2022-08-17T15:20:28.277Z,2.30
2022-08-17T15:22:57.662Z,2.10
2022-08-17T15:25:32.354Z,2.40
2022-08-17T15:28:01.064Z,2.58
2022-08-17T15:30:29.783Z,1.70
2022-08-17T15:32:59.016Z,2.22
2022-08-17T15:35:32.217Z,2.17
2022-08-17T15:38:10.610Z,2.10
2022-08-17T15:40:44.767Z,2.22
2022-08-17T15:43:27.586Z,1.98
2022-08-17T15:46:07.543Z,1.70
2022-08-17T15:48:42.576Z,2.15
2022-08-17T15:51:19.709Z,2.17
2022-08-17T15:54:04.547Z,2.30
2022-08-17T15:56:47.599Z,2.22
2022-08-17T15:59:15.917Z,2.42
2022-08-17T16:03:13.329Z,2.20
2022-08-17T16:04:32.130Z,2.35
2022-08-17T16:07:00.974Z,2.40
2022-08-17T16:09:28.972Z,2.60
2022-08-17T16:11:57.423Z,3.00
2022-08-17T16:14:33.535Z,2.22
2022-08-17T16:17:39.289Z,2.55
2022-08-17T16:19:55.954Z,2.40
2022-08-17T16:22:50.485Z,2.47
2022-08-17T16:25:21.958Z,2.50
2022-08-17T16:27:54.205Z,2.35
2022-08-17T16:30:25.987Z,2.03
2022-08-17T16:32:56.303Z,2.22
2022-08-17T16:35:27.186Z,2.47
2022-08-17T16:37:58.637Z,2.00
2022-08-17T16:40:29.570Z,2.10
2022-08-17T16:42:59.170Z,2.60
2022-08-17T16:45:29.577Z,2.58
2022-08-17T16:48:01.653Z,2.33
2022-08-17T16:50:29.432Z,2.25
2022-08-17T16:53:06.782Z,2.03
2022-08-17T16:55:35.914Z,2.80
2022-08-17T16:58:09.000Z,2.63
2022-08-17T17:00:37.713Z,2.70
2022-08-17T17:03:19.632Z,2.85
2022-08-17T17:06:13.926Z,2.80
2022-08-17T17:08:49.674Z,2.63
2022-08-17T17:11:41.988Z,3.10
2022-08-17T17:14:15.639Z,2.75
2022-08-17T17:17:04.691Z,2.50
2022-08-17T17:19:46.259Z,3.13
2022-08-17T17:22:38.349Z,2.88
2022-08-17T17:25:12.187Z,2.88
2022-08-17T17:28:08.951Z,3.67
2022-08-17T17:30:50.363Z,2.70
2022-08-17T17:33:36.586Z,2.67
2022-08-17T17:36:25.329Z,6.10
2022-08-17T17:38:59.523Z,7.57
2022-08-17T17:41:33.547Z,5.93
2022-08-17T17:44:12.088Z,4.78
2022-08-17T17:46:44.051Z,5.28
2022-08-17T17:49:14.477Z,5.30
2022-08-17T17:52:09.888Z,4.80
2022-08-17T17:54:51.188Z,4.35
2022-08-17T17:57:39.916Z,3.65
2022-08-17T18:00:26.550Z,3.92
2022-08-17T18:03:17.294Z,3.35
2022-08-17T18:06:18.962Z,3.13
2022-08-17T18:09:06.290Z,3.20
2022-08-17T18:12:19.311Z,3.75
2022-08-17T18:14:51.693Z,3.55
2022-08-17T18:17:20.672Z,3.20
2022-08-17T18:19:48.805Z,3.58
2022-08-17T18:22:20.070Z,3.08
2022-08-17T18:24:56.020Z,3.72
2022-08-17T18:27:51.148Z,4.75
2022-08-17T18:30:19.585Z,3.30
2022-08-17T18:32:47.595Z,3.00
2022-08-17T18:35:15.313Z,3.10
2022-08-17T18:37:47.245Z,3.28
2022-08-17T18:40:18.561Z,3.42
2022-08-17T18:42:58.586Z,3.33
2022-08-17T18:45:33.844Z,2.70
2022-08-17T18:48:03.120Z,3.25
2022-08-17T18:50:41.583Z,3.15
2022-08-17T18:53:38.743Z,3.33
2022-08-17T18:56:30.554Z,2.83
2022-08-17T18:59:01.395Z,3.97
2022-08-17T19:02:16.004Z,3.72
2022-08-17T19:04:53.703Z,2.78
2022-08-17T19:07:53.304Z,3.17
2022-08-17T19:10:47.403Z,3.53
2022-08-17T19:13:37.580Z,3.90
2022-08-17T19:16:14.020Z,3.90
2022-08-17T19:18:58.116Z,3.85
2022-08-17T19:21:38.942Z,2.88
2022-08-17T19:24:19.745Z,3.00
2022-08-17T19:26:56.724Z,3.80
2022-08-17T19:29:47.338Z,4.10
2022-08-17T19:32:20.538Z,3.65
2022-08-17T19:34:49.464Z,3.03
2022-08-17T19:37:42.023Z,3.78
2022-08-17T19:40:54.152Z,2.92
2022-08-17T19:43:42.170Z,3.25
2022-08-17T19:46:35.596Z,3.20
2022-08-17T19:49:33.281Z,3.50
2022-08-17T19:52:27.604Z,3.90
2022-08-17T19:55:43.680Z,3.30
2022-08-17T20:00:54.064Z,3.15
2022-08-17T20:03:35.013Z,3.45
2022-08-17T20:06:12.987Z,5.68
2022-08-17T20:08:50.046Z,8.95
2022-08-17T20:11:55.479Z,4.25
2022-08-17T20:14:31.717Z,4.00
2022-08-17T20:17:02.817Z,3.88
2022-08-17T20:19:45.972Z,3.83
2022-08-17T20:22:46.740Z,3.97
2022-08-17T20:25:47.027Z,4.07
2022-08-17T20:28:26.165Z,3.55
2022-08-17T20:30:54.275Z,4.18
2022-08-17T20:33:27.886Z,3.95
2022-08-17T20:36:20.153Z,4.03
2022-08-17T20:38:58.662Z,4.05
2022-08-17T20:41:30.630Z,3.70
2022-08-17T20:43:59.204Z,3.47
2022-08-17T20:46:36.163Z,4.22
2022-08-17T20:49:18.877Z,4.30
2022-08-17T20:52:00.826Z,3.92
2022-08-17T20:54:51.756Z,4.32
2022-08-17T20:57:32.095Z,4.28
2022-08-17T21:00:17.732Z,4.03
2022-08-17T21:02:50.181Z,4.68
2022-08-17T21:05:34.316Z,4.80
2022-08-17T21:08:46.734Z,4.95
2022-08-17T21:11:57.260Z,5.78
2022-08-17T21:14:19.335Z,5.03
2022-08-17T21:17:17.888Z,5.57
2022-08-17T21:20:10.188Z,5.13
2022-08-17T21:22:58.286Z,5.55
2022-08-17T21:25:53.845Z,5.15
2022-08-17T21:29:30.268Z,6.22
2022-08-17T21:32:06.179Z,6.45
2022-08-17T21:34:44.581Z,6.00
2022-08-17T21:37:24.225Z,6.50
2022-08-17T21:40:00.854Z,6.65
2022-08-17T21:42:35.138Z,6.07
2022-08-17T21:45:39.156Z,7.10
2022-08-17T21:48:24.194Z,6.32
2022-08-17T21:54:01.211Z,6.00
2022-08-17T21:56:37.079Z,6.07
2022-08-17T21:59:30.058Z,5.78
2022-08-17T22:02:03.612Z,5.60
2022-08-17T22:04:37.724Z,6.70
2022-08-17T22:07:11.884Z,5.40
2022-08-17T22:09:46.859Z,5.88
2022-08-17T22:12:20.471Z,5.90
2022-08-17T22:15:02.602Z,6.70
2022-08-17T22:17:52.401Z,6.15
2022-08-17T22:20:21.557Z,5.78
2022-08-17T22:23:08.041Z,6.03
2022-08-17T22:25:57.109Z,5.80
2022-08-17T22:28:52.976Z,6.18
2022-08-17T22:31:41.435Z,6.30
2022-08-17T22:34:16.333Z,5.22
2022-08-17T22:36:44.224Z,6.50
2022-08-17T22:39:11.922Z,5.65
2022-08-17T22:41:51.196Z,5.97
2022-08-17T22:44:35.831Z,5.93
2022-08-17T22:47:16.552Z,5.88
2022-08-17T22:49:54.154Z,6.25
2022-08-17T22:52:35.788Z,5.30
2022-08-17T22:55:32.575Z,5.82
2022-08-17T22:58:20.100Z,4.93
2022-08-17T23:00:49.616Z,4.72
2022-08-17T23:03:28.246Z,5.60
2022-08-17T23:06:14.945Z,5.18
2022-08-17T23:08:57.885Z,5.07
2022-08-17T23:11:42.921Z,5.35
2022-08-17T23:14:18.592Z,4.50
2022-08-17T23:16:47.332Z,4.80
2022-08-17T23:19:18.310Z,5.18
2022-08-17T23:21:46.165Z,4.85
2022-08-17T23:24:24.904Z,5.65
2022-08-17T23:26:53.056Z,4.75
2022-08-17T23:29:21.815Z,3.72
2022-08-17T23:31:50.685Z,5.10
2022-08-17T23:34:19.300Z,4.43
2022-08-17T23:36:52.518Z,4.40
2022-08-17T23:39:28.110Z,4.85
2022-08-17T23:41:59.932Z,4.47
2022-08-17T23:44:29.107Z,3.88
2022-08-17T23:46:57.488Z,4.25
2022-08-17T23:49:25.466Z,3.78
2022-08-17T23:51:56.952Z,4.18
2022-08-17T23:54:43.986Z,4.13
2022-08-17T23:57:20.670Z,4.85
